createdAt,value
2022-08-17T01:41:53.577Z,44.87
2022-08-17T01:45:32.737Z,51.00
2022-08-17T01:48:28.087Z,51.58
2022-08-17T01:51:22.796Z,45.65
2022-08-17T01:54:19.828Z,49.28
2022-08-17T01:57:15.509Z,49.90
2022-08-17T02:00:11.721Z,52.53
2022-08-17T02:03:16.490Z,55.67
2022-08-17T02:06:27.094Z,64.95
2022-08-17T02:09:23.326Z,62.78
2022-08-17T02:12:43.378Z,69.90
2022-08-17T02:15:37.906Z,56.22
2022-08-17T02:22:26.473Z,62.17
2022-08-17T02:25:23.871Z,60.47
2022-08-17T02:28:19.070Z,63.73
2022-08-17T02:31:18.312Z,69.65
2022-08-17T02:34:14.659Z,74.75
2022-08-17T02:37:09.069Z,61.53
2022-08-17T02:40:04.929Z,64.60
2022-08-17T02:43:00.351Z,65.23
2022-08-17T02:46:22.407Z,60.35
2022-08-17T02:49:17.424Z,51.05
2022-08-17T02:52:18.810Z,50.72
2022-08-17T02:55:52.969Z,53.63
2022-08-17T02:58:48.606Z,45.10
2022-08-17T03:01:50.559Z,46.08
2022-08-17T03:04:45.433Z,50.03
2022-08-17T03:07:39.941Z,55.55
2022-08-17T03:10:40.232Z,52.10
2022-08-17T03:20:16.743Z,56.08
2022-08-17T03:23:12.059Z,47.97
2022-08-17T03:26:12.377Z,50.80
2022-08-17T03:29:10.252Z,52.47
2022-08-17T03:39:12.175Z,49.63
2022-08-17T03:42:31.194Z,55.38
2022-08-17T03:45:43.197Z,53.80
2022-08-17T03:48:51.927Z,53.90
2022-08-17T04:01:38.937Z,54.07
2022-08-17T04:04:36.927Z,59.15
2022-08-17T04:07:31.937Z,49.15
2022-08-17T04:13:33.140Z,50.53
2022-08-17T04:19:30.213Z,52.88
2022-08-17T04:22:32.375Z,53.40
2022-08-17T04:25:32.494Z,43.97
2022-08-17T04:28:27.595Z,37.50
2022-08-17T04:31:24.479Z,41.97
2022-08-17T04:34:42.049Z,44.53
2022-08-17T04:37:24.172Z,37.67
2022-08-17T04:40:18.158Z,40.85
2022-08-17T06:14:07.141Z,41.40
2022-08-17T06:30:20.505Z,38.70
2022-08-17T07:31:52.114Z,29.00
2022-08-17T07:35:11.514Z,24.33
2022-08-17T07:37:48.962Z,21.50
2022-08-17T07:40:32.095Z,28.88
2022-08-17T07:43:22.340Z,24.50
2022-08-17T07:46:14.258Z,22.67
2022-08-17T07:49:20.228Z,27.23
2022-08-17T07:52:51.217Z,19.35
2022-08-17T08:01:25.686Z,18.40
2022-08-17T08:08:12.199Z,11.57
2022-08-17T08:11:12.907Z,13.23
2022-08-17T08:19:29.355Z,14.63
2022-08-17T08:22:11.605Z,13.05
2022-08-17T08:25:07.252Z,9.25
2022-08-17T11:21:49.903Z,5.20
2022-08-17T11:28:06.313Z,5.20
2022-08-17T11:31:17.335Z,5.25
2022-08-17T11:37:18.111Z,4.75
2022-08-17T11:40:09.050Z,4.20
2022-08-17T11:42:54.032Z,3.70
2022-08-17T14:08:37.292Z,7.13
2022-08-17T14:35:15.361Z,4.45
2022-08-17T14:45:30.421Z,45.95
2022-08-17T14:51:32.215Z,53.78
2022-08-17T14:54:05.825Z,62.92
2022-08-17T15:02:14.057Z,65.70
2022-08-17T17:08:43.650Z,40.45
2022-08-17T17:11:35.619Z,38.25
2022-08-17T17:14:07.649Z,43.15
2022-08-17T17:17:01.372Z,36.97
2022-08-17T17:20:00.950Z,36.13
2022-08-17T17:22:56.190Z,33.15
2022-08-17T22:17:47.190Z,104.97
2022-08-17T22:37:35.785Z,105.05
